Time;durP1;ratioP1;P1;durP2;ratioP2;P2;SDS_P1;SDS_P2;PMS_P1;PMS_P2;Temp;Humidity;BMP_temperature;BMP_pressure;BME280_temperature;BME280_humidity;BME280_pressure;Samples;Min_cycle;Max_cycle;Signal;HPM_P1;HPM_P2
2021/12/27 00:01:27;;;;;;;;;;;10.80;99.90;;;;;;5072688;28;20003;-62
2021/12/27 00:03:54;;;;;;;;;;;10.80;99.90;;;;;;5072903;28;19924;-63
2021/12/27 00:06:20;;;;;;;;;;;10.80;99.90;;;;;;5056973;28;19912;-61
2021/12/27 00:08:45;;;;;;;;;;;10.80;99.90;;;;;;5070206;28;19915;-61
2021/12/27 00:11:12;;;;;;;;;;;10.80;99.90;;;;;;5072437;28;19916;-62
2021/12/27 00:13:37;;;;;;;;;;;10.80;99.90;;;;;;5070955;28;19912;-61
2021/12/27 00:16:03;;;;;;;;;;;10.80;99.90;;;;;;5072526;28;19966;-61
2021/12/27 00:18:29;;;;;;;;;;;10.80;99.90;;;;;;5072508;28;19916;-62
2021/12/27 00:20:54;;;;;;;;;;;10.80;99.90;;;;;;5070148;28;19916;-61
2021/12/27 00:23:20;;;;;;;;;;;10.80;99.90;;;;;;5073006;28;19912;-63
2021/12/27 00:25:45;;;;;;;;;;;10.80;99.90;;;;;;5072094;28;20674;-63
2021/12/27 00:28:11;;;;;;;;;;;10.80;99.90;;;;;;5073327;28;20335;-62
2021/12/27 00:30:38;;;;;;;;;;;10.80;99.90;;;;;;5072593;28;19919;-60
2021/12/27 00:33:04;;;;;;;;;;;10.80;99.90;;;;;;5070866;28;20007;-62
2021/12/27 00:35:32;;;;;;;;;;;10.80;99.90;;;;;;5070640;28;19952;-61
2021/12/27 00:37:58;;;;;;;;;;;10.90;99.90;;;;;;5072652;28;19920;-62
2021/12/27 00:40:24;;;;;;;;;;;10.90;99.90;;;;;;5072537;28;19935;-62
2021/12/27 00:42:50;;;;;;;;;;;10.80;99.90;;;;;;5072428;28;20377;-60
2021/12/27 00:45:16;;;;;;;;;;;10.80;99.90;;;;;;5071566;28;19916;-61
2021/12/27 00:47:42;;;;;;;;;;;10.80;99.90;;;;;;5070729;28;19914;-62
2021/12/27 00:50:08;;;;;;;;;;;10.80;99.90;;;;;;5072118;28;19912;-62
2021/12/27 00:52:35;;;;;;;;;;;10.80;99.90;;;;;;5071206;28;19912;-61
2021/12/27 00:55:02;;;;;;;;;;;10.80;99.90;;;;;;5074216;28;20300;-62
2021/12/27 00:57:28;;;;;;;;;;;10.80;99.90;;;;;;5077052;28;19919;-62
2021/12/27 00:59:53;;;;;;;;;;;10.80;99.90;;;;;;5074141;28;19909;-63
2021/12/27 01:02:19;;;;;;;;;;;10.80;99.90;;;;;;5076812;28;20355;-61
2021/12/27 01:04:44;;;;;;;;;;;10.80;99.90;;;;;;5076279;28;20389;-61
2021/12/27 01:07:10;;;;;;;;;;;10.80;99.90;;;;;;5076703;28;20396;-61
2021/12/27 01:15:10;;;;;;;;;;;10.80;99.90;;;;;;5070395;28;19977;-59
2021/12/27 01:17:36;;;;;;;;;;;10.80;99.90;;;;;;5075906;28;19934;-59
2021/12/27 01:20:03;;;;;;;;;;;10.80;99.90;;;;;;5076076;28;19956;-61
2021/12/27 01:22:29;;;;;;;;;;;10.80;99.90;;;;;;5076286;28;19991;-60
2021/12/27 01:24:54;;;;;;;;;;;10.80;99.90;;;;;;5075541;28;20014;-62
2021/12/27 01:27:20;;;;;;;;;;;10.80;99.90;;;;;;5076541;28;20405;-59
2021/12/27 01:29:45;;;;;;;;;;;10.80;99.90;;;;;;5073981;28;19915;-61
2021/12/27 01:32:11;;;;;;;;;;;10.90;99.90;;;;;;5074765;28;19913;-61
2021/12/27 01:34:36;;;;;;;;;;;10.80;99.90;;;;;;5076006;28;19916;-61
2021/12/27 01:37:02;;;;;;;;;;;10.80;99.90;;;;;;5076226;28;19918;-61
2021/12/27 01:39:27;;;;;;;;;;;10.80;99.90;;;;;;5076240;28;19912;-62
2021/12/27 01:41:54;;;;;;;;;;;10.80;99.90;;;;;;5073410;28;20304;-61
2021/12/27 01:44:19;;;;;;;;;;;10.80;99.90;;;;;;5073852;28;19939;-60
2021/12/27 01:46:45;;;;;;;;;;;10.80;99.90;;;;;;5075902;28;20377;-62
2021/12/27 01:49:11;;;;;;;;;;;10.80;99.90;;;;;;5076035;28;19913;-61
2021/12/27 01:51:38;;;;;;;;;;;10.80;99.90;;;;;;5074717;28;19916;-62
2021/12/27 01:54:04;;;;;;;;;;;10.80;99.90;;;;;;5073623;28;19909;-62
2021/12/27 01:56:30;;;;;;;;;;;10.90;99.90;;;;;;5075854;28;19908;-63
2021/12/27 01:58:56;;;;;;;;;;;10.80;99.90;;;;;;5075259;28;19913;-62
2021/12/27 02:01:22;;;;;;;;;;;10.80;99.90;;;;;;5075633;28;19951;-63
2021/12/27 02:03:49;;;;;;;;;;;10.80;99.90;;;;;;5076177;28;19968;-61
2021/12/27 02:06:14;;;;;;;;;;;10.90;99.90;;;;;;5073548;28;19959;-61
2021/12/27 02:08:41;;;;;;;;;;;10.80;99.90;;;;;;5074297;28;19962;-60
2021/12/27 02:11:09;;;;;;;;;;;10.80;99.90;;;;;;5073912;28;19921;-62
2021/12/27 02:13:36;;;;;;;;;;;10.90;99.90;;;;;;5074931;28;19912;-61
2021/12/27 02:16:02;;;;;;;;;;;10.80;99.90;;;;;;5075846;28;19919;-58
2021/12/27 02:18:28;;;;;;;;;;;10.80;99.90;;;;;;5075165;28;19931;-61
2021/12/27 02:20:53;;;;;;;;;;;10.80;99.90;;;;;;5072637;28;20372;-60
2021/12/27 02:23:19;;;;;;;;;;;10.80;99.90;;;;;;5075542;28;19913;-61
2021/12/27 02:25:46;;;;;;;;;;;10.80;99.90;;;;;;5075409;28;19917;-60
2021/12/27 02:28:12;;;;;;;;;;;10.80;99.90;;;;;;5074584;28;20396;-60
2021/12/27 02:30:39;;;;;;;;;;;10.80;99.90;;;;;;5073756;28;19920;-61
2021/12/27 02:33:05;;;;;;;;;;;10.80;99.90;;;;;;5073230;28;19908;-62
2021/12/27 02:35:33;;;;;;;;;;;10.80;99.90;;;;;;5070884;28;19915;-61
2021/12/27 02:38:00;;;;;;;;;;;10.80;99.90;;;;;;5075068;28;19999;-61
2021/12/27 02:40:26;;;;;;;;;;;10.80;99.90;;;;;;5074607;28;19965;-62
2021/12/27 02:43:06;;;;;;;;;;;10.80;99.90;;;;;;5074513;28;20393;-60
2021/12/27 02:45:33;;;;;;;;;;;10.80;99.90;;;;;;5060481;28;19923;-61
2021/12/27 02:47:58;;;;;;;;;;;10.80;99.90;;;;;;5072563;28;19912;-61
2021/12/27 02:50:25;;;;;;;;;;;10.80;99.90;;;;;;5073351;28;19916;-60
2021/12/27 02:52:51;;;;;;;;;;;10.80;99.90;;;;;;5074379;28;19912;-59
2021/12/27 02:55:17;;;;;;;;;;;10.70;99.90;;;;;;5074523;28;19923;-59
2021/12/27 02:57:46;;;;;;;;;;;10.70;99.90;;;;;;5074311;28;20377;-60
2021/12/27 03:00:15;;;;;;;;;;;10.70;99.90;;;;;;5073322;28;20015;-60
2021/12/27 03:02:41;;;;;;;;;;;10.70;99.90;;;;;;5072988;28;19962;-60
2021/12/27 03:05:07;;;;;;;;;;;10.70;99.90;;;;;;5074138;28;19943;-62
2021/12/27 03:07:33;;;;;;;;;;;10.70;99.90;;;;;;5074186;28;19920;-62
2021/12/27 03:09:59;;;;;;;;;;;10.70;99.90;;;;;;5073132;28;20313;-62
2021/12/27 03:12:24;;;;;;;;;;;10.70;99.90;;;;;;5073935;28;19974;-61
2021/12/27 03:14:50;;;;;;;;;;;10.70;99.90;;;;;;5072298;28;19951;-62
2021/12/27 03:17:15;;;;;;;;;;;10.70;99.90;;;;;;5073783;28;19917;-62
2021/12/27 03:19:41;;;;;;;;;;;10.70;99.90;;;;;;5073824;28;19917;-61
2021/12/27 03:22:06;;;;;;;;;;;10.70;99.90;;;;;;5074074;28;19912;-61
2021/12/27 03:24:32;;;;;;;;;;;10.70;99.90;;;;;;5074003;28;19927;-60
2021/12/27 03:26:57;;;;;;;;;;;10.70;99.90;;;;;;5071752;28;19908;-61
2021/12/27 03:29:22;;;;;;;;;;;10.70;99.90;;;;;;5072692;28;19913;-62
2021/12/27 03:31:49;;;;;;;;;;;10.70;99.90;;;;;;5073787;28;19935;-62
2021/12/27 03:34:15;;;;;;;;;;;10.70;99.90;;;;;;5073591;28;19927;-59
2021/12/27 03:36:42;;;;;;;;;;;10.70;99.90;;;;;;5073822;28;19937;-61
2021/12/27 03:39:09;;;;;;;;;;;10.70;99.90;;;;;;5071887;28;20007;-61
2021/12/27 03:41:35;;;;;;;;;;;10.70;99.90;;;;;;5055367;28;20404;-61
2021/12/27 03:44:01;;;;;;;;;;;10.80;99.90;;;;;;5073532;28;19917;-61
2021/12/27 03:46:26;;;;;;;;;;;10.70;99.90;;;;;;5073366;28;19912;-61
2021/12/27 03:48:52;;;;;;;;;;;10.70;99.90;;;;;;5072510;28;19916;-60
2021/12/27 03:51:18;;;;;;;;;;;10.70;99.90;;;;;;5072992;28;19999;-58
2021/12/27 03:53:43;;;;;;;;;;;10.70;99.90;;;;;;5054421;28;20309;-59
2021/12/27 03:56:09;;;;;;;;;;;10.70;99.90;;;;;;5072887;28;19947;-61
2021/12/27 03:58:47;;;;;;;;;;;10.70;99.90;;;;;;5073414;28;19912;-60
2021/12/27 04:01:16;;;;;;;;;;;10.70;99.90;;;;;;5073217;28;19908;-61
2021/12/27 04:03:47;;;;;;;;;;;10.70;99.90;;;;;;5073721;28;19943;-60
2021/12/27 04:06:13;;;;;;;;;;;10.70;99.90;;;;;;5072749;28;19917;-60
2021/12/27 04:08:38;;;;;;;;;;;10.70;99.90;;;;;;5071054;28;20459;-59
2021/12/27 04:11:04;;;;;;;;;;;10.70;99.90;;;;;;5072801;28;19965;-60
2021/12/27 04:13:29;;;;;;;;;;;10.60;99.90;;;;;;5073333;28;19916;-61
2021/12/27 04:15:55;;;;;;;;;;;10.60;99.90;;;;;;5073047;28;19913;-59
2021/12/27 04:18:21;;;;;;;;;;;10.60;99.90;;;;;;5073060;28;20010;-61
2021/12/27 04:20:46;;;;;;;;;;;10.60;99.90;;;;;;5071592;28;19959;-61
2021/12/27 04:23:12;;;;;;;;;;;10.60;99.90;;;;;;5072817;28;19962;-62
2021/12/27 04:25:38;;;;;;;;;;;10.60;99.90;;;;;;5072669;28;20436;-60
2021/12/27 04:28:04;;;;;;;;;;;10.60;99.90;;;;;;5071969;28;19916;-61
2021/12/27 04:30:30;;;;;;;;;;;10.60;99.90;;;;;;5078847;28;20368;-59
2021/12/27 04:32:56;;;;;;;;;;;10.60;99.90;;;;;;5077121;28;20400;-63
2021/12/27 04:35:21;;;;;;;;;;;10.60;99.90;;;;;;5079859;28;20262;-60
2021/12/27 04:37:47;;;;;;;;;;;10.60;99.90;;;;;;5079648;28;20479;-62
2021/12/27 04:40:14;;;;;;;;;;;10.60;99.90;;;;;;5079464;28;19920;-60
2021/12/27 04:42:43;;;;;;;;;;;10.70;99.90;;;;;;5079975;28;19912;-62
2021/12/27 04:45:11;;;;;;;;;;;10.70;99.90;;;;;;5078029;28;19921;-62
2021/12/27 04:47:37;;;;;;;;;;;10.60;99.90;;;;;;5077440;28;19919;-60
2021/12/27 04:50:03;;;;;;;;;;;10.70;99.90;;;;;;5079756;28;20038;-60
2021/12/27 04:52:29;;;;;;;;;;;10.70;99.90;;;;;;5078790;28;19955;-61
2021/12/27 04:54:54;;;;;;;;;;;10.70;99.90;;;;;;5079632;28;19915;-60
2021/12/27 04:57:20;;;;;;;;;;;10.70;99.90;;;;;;5079315;28;19919;-61
2021/12/27 04:59:45;;;;;;;;;;;10.70;99.90;;;;;;5077711;28;19916;-60
2021/12/27 05:02:11;;;;;;;;;;;10.60;99.90;;;;;;5079383;28;19912;-60
2021/12/27 05:04:36;;;;;;;;;;;10.60;99.90;;;;;;5079398;28;19986;-60
2021/12/27 05:07:02;;;;;;;;;;;10.60;99.90;;;;;;5078123;28;19999;-60
2021/12/27 05:09:27;;;;;;;;;;;10.60;99.90;;;;;;5079182;28;19927;-61
2021/12/27 05:11:53;;;;;;;;;;;10.70;99.90;;;;;;5077093;28;20381;-60
2021/12/27 05:14:18;;;;;;;;;;;10.60;99.90;;;;;;5079695;28;20015;-60
2021/12/27 05:16:47;;;;;;;;;;;10.60;99.90;;;;;;5078296;28;20214;-61
2021/12/27 05:19:14;;;;;;;;;;;10.60;99.90;;;;;;5079529;28;19939;-60
2021/12/27 05:21:39;;;;;;;;;;;10.60;99.90;;;;;;5079043;28;19912;-61
2021/12/27 05:24:05;;;;;;;;;;;10.60;99.90;;;;;;5077547;28;19917;-59
2021/12/27 05:26:30;;;;;;;;;;;10.60;99.90;;;;;;5077085;28;20359;-61
2021/12/27 05:28:56;;;;;;;;;;;10.60;99.90;;;;;;5079041;28;19958;-61
2021/12/27 05:31:21;;;;;;;;;;;10.60;99.90;;;;;;5078983;28;20384;-60
2021/12/27 05:33:47;;;;;;;;;;;10.60;99.90;;;;;;5079282;28;20011;-59
2021/12/27 05:36:12;;;;;;;;;;;10.60;99.90;;;;;;5077310;28;19968;-59
2021/12/27 05:38:39;;;;;;;;;;;10.60;99.90;;;;;;5078570;28;19912;-60
2021/12/27 05:41:04;;;;;;;;;;;10.60;99.90;;;;;;5076302;28;19917;-62
2021/12/27 05:43:30;;;;;;;;;;;10.60;99.90;;;;;;5075658;28;19916;-60
2021/12/27 05:45:55;;;;;;;;;;;10.60;99.90;;;;;;5075001;28;19917;-60
2021/12/27 05:48:21;;;;;;;;;;;10.60;99.90;;;;;;5075548;28;20003;-60
2021/12/27 05:50:46;;;;;;;;;;;10.60;99.90;;;;;;5073599;28;19954;-60
2021/12/27 05:53:12;;;;;;;;;;;10.50;99.90;;;;;;5075921;28;19912;-60
2021/12/27 05:55:37;;;;;;;;;;;10.50;99.90;;;;;;5075472;28;20058;-61
2021/12/27 05:58:04;;;;;;;;;;;10.50;99.90;;;;;;5075463;28;19916;-59
2021/12/27 06:00:30;;;;;;;;;;;10.40;99.90;;;;;;5075638;28;19947;-61
2021/12/27 06:02:55;;;;;;;;;;;10.40;99.90;;;;;;5074076;28;19948;-61
2021/12/27 06:05:24;;;;;;;;;;;10.40;99.90;;;;;;5073514;28;19919;-60
2021/12/27 06:07:50;;;;;;;;;;;10.40;99.90;;;;;;5075412;28;20053;-60
2021/12/27 06:10:16;;;;;;;;;;;10.40;99.90;;;;;;5075309;28;20405;-61
2021/12/27 06:12:41;;;;;;;;;;;10.40;99.90;;;;;;5075385;28;20297;-61
2021/12/27 06:15:07;;;;;;;;;;;10.40;99.90;;;;;;5073076;28;19915;-62
2021/12/27 06:17:34;;;;;;;;;;;10.30;99.90;;;;;;5071192;28;19912;-61
2021/12/27 06:20:00;;;;;;;;;;;10.30;99.90;;;;;;5074841;28;19916;-60
2021/12/27 06:22:27;;;;;;;;;;;10.30;99.90;;;;;;5075855;28;19912;-61
2021/12/27 06:24:52;;;;;;;;;;;10.30;99.90;;;;;;5073497;28;19917;-61
2021/12/27 06:27:18;;;;;;;;;;;10.20;99.90;;;;;;5074818;28;20270;-61
2021/12/27 06:29:43;;;;;;;;;;;10.20;99.90;;;;;;5073649;28;19966;-61
2021/12/27 06:32:13;;;;;;;;;;;10.20;99.90;;;;;;5074771;28;19916;-61
2021/12/27 06:34:41;;;;;;;;;;;10.20;99.90;;;;;;5074691;28;19913;-61
2021/12/27 06:37:07;;;;;;;;;;;10.20;99.90;;;;;;5075180;28;19944;-60
2021/12/27 06:39:33;;;;;;;;;;;10.20;99.90;;;;;;5075222;28;19982;-61
2021/12/27 06:41:59;;;;;;;;;;;10.10;99.90;;;;;;5072742;28;20369;-62
2021/12/27 06:44:24;;;;;;;;;;;10.10;99.90;;;;;;5073268;28;19924;-60
2021/12/27 06:46:50;;;;;;;;;;;10.10;99.90;;;;;;5074634;28;19916;-62
2021/12/27 06:49:15;;;;;;;;;;;10.10;99.90;;;;;;5074341;28;19920;-60
2021/12/27 06:51:41;;;;;;;;;;;10.10;99.90;;;;;;5074595;28;19981;-60
2021/12/27 06:54:06;;;;;;;;;;;10.10;99.90;;;;;;5072201;28;19940;-60
2021/12/27 06:56:32;;;;;;;;;;;10.00;99.90;;;;;;5074660;28;19920;-61
2021/12/27 06:58:59;;;;;;;;;;;10.00;99.90;;;;;;5074273;28;19908;-61
2021/12/27 07:01:24;;;;;;;;;;;10.00;99.90;;;;;;5073770;28;19913;-62
2021/12/27 07:03:50;;;;;;;;;;;10.10;99.90;;;;;;5072193;28;19916;-60
2021/12/27 07:06:15;;;;;;;;;;;10.00;99.90;;;;;;5072497;28;20049;-60
2021/12/27 07:08:41;;;;;;;;;;;10.10;99.90;;;;;;5072608;28;20471;-62
2021/12/27 07:11:06;;;;;;;;;;;10.00;99.90;;;;;;5073498;28;19924;-61
2021/12/27 07:13:32;;;;;;;;;;;10.00;99.90;;;;;;5073564;28;19912;-61
2021/12/27 07:15:57;;;;;;;;;;;10.00;99.90;;;;;;5073601;28;19908;-61
2021/12/27 07:18:23;;;;;;;;;;;10.00;99.90;;;;;;5073243;28;20400;-60
2021/12/27 07:20:50;;;;;;;;;;;10.00;99.90;;;;;;5072040;28;19909;-62
2021/12/27 07:23:15;;;;;;;;;;;10.00;99.90;;;;;;5071576;28;19946;-60
2021/12/27 07:25:41;;;;;;;;;;;10.00;99.90;;;;;;5071693;28;19927;-63
2021/12/27 07:28:06;;;;;;;;;;;9.90;99.90;;;;;;5061525;28;19921;-59
2021/12/27 07:30:32;;;;;;;;;;;9.90;99.90;;;;;;5066577;28;19923;-66
2021/12/27 07:32:58;;;;;;;;;;;9.90;99.90;;;;;;5062855;28;19995;-64
2021/12/27 07:35:24;;;;;;;;;;;9.90;99.90;;;;;;5069886;28;19922;-62
2021/12/27 07:37:50;;;;;;;;;;;9.80;99.90;;;;;;5059547;28;19909;-61
2021/12/27 07:40:15;;;;;;;;;;;9.90;99.90;;;;;;5058713;28;19939;-61
2021/12/27 07:42:41;;;;;;;;;;;9.90;99.90;;;;;;5066841;28;20000;-61
2021/12/27 07:45:07;;;;;;;;;;;9.90;99.90;;;;;;5053334;28;19929;-61
2021/12/27 07:47:32;;;;;;;;;;;9.80;99.90;;;;;;5068193;28;19913;-64
2021/12/27 07:49:58;;;;;;;;;;;9.80;99.90;;;;;;5068544;28;19916;-61
2021/12/27 07:52:23;;;;;;;;;;;9.80;99.90;;;;;;5066887;28;20409;-63
2021/12/27 07:54:49;;;;;;;;;;;9.80;99.90;;;;;;5066886;28;19963;-59
2021/12/27 07:57:14;;;;;;;;;;;9.80;99.90;;;;;;5068472;28;19920;-61
2021/12/27 07:59:41;;;;;;;;;;;9.80;99.90;;;;;;5067649;28;19915;-60
2021/12/27 08:02:08;;;;;;;;;;;9.70;99.90;;;;;;5060424;28;19952;-62
2021/12/27 08:04:33;;;;;;;;;;;9.80;99.90;;;;;;5065743;28;20377;-63
2021/12/27 08:06:59;;;;;;;;;;;9.80;99.90;;;;;;5066411;28;19920;-63
2021/12/27 08:09:25;;;;;;;;;;;9.80;99.90;;;;;;5066798;28;20356;-62
2021/12/27 08:11:50;;;;;;;;;;;9.80;99.90;;;;;;5067001;28;19916;-63
2021/12/27 08:14:16;;;;;;;;;;;9.70;99.90;;;;;;5067305;28;19920;-63
2021/12/27 08:16:41;;;;;;;;;;;9.70;99.90;;;;;;5066671;28;20011;-61
2021/12/27 08:19:07;;;;;;;;;;;9.70;99.90;;;;;;5067162;28;19921;-64
2021/12/27 08:21:33;;;;;;;;;;;9.70;99.90;;;;;;5067195;28;19916;-61
2021/12/27 08:23:58;;;;;;;;;;;9.70;99.90;;;;;;5067022;28;19928;-62
2021/12/27 08:26:24;;;;;;;;;;;9.70;99.90;;;;;;5068005;28;20393;-63
2021/12/27 08:28:51;;;;;;;;;;;9.70;99.90;;;;;;5067031;28;20521;-63
2021/12/27 08:31:17;;;;;;;;;;;9.70;99.90;;;;;;5066566;28;19920;-62
2021/12/27 08:33:42;;;;;;;;;;;9.70;99.90;;;;;;5066914;28;19923;-61
2021/12/27 08:36:08;;;;;;;;;;;9.70;99.90;;;;;;5066579;28;19919;-62
2021/12/27 08:38:33;;;;;;;;;;;9.70;99.90;;;;;;5063369;28;20326;-62
2021/12/27 08:40:59;;;;;;;;;;;9.70;99.90;;;;;;5065231;28;19916;-63
2021/12/27 08:43:25;;;;;;;;;;;9.70;99.90;;;;;;5066152;28;19920;-60
2021/12/27 08:45:51;;;;;;;;;;;9.70;99.90;;;;;;5065253;28;20298;-60
2021/12/27 08:48:17;;;;;;;;;;;9.70;99.90;;;;;;5049133;28;20023;-61
2021/12/27 08:50:42;;;;;;;;;;;9.70;99.90;;;;;;5068089;28;19919;-61
2021/12/27 08:53:08;;;;;;;;;;;9.70;99.90;;;;;;5066300;28;19916;-60
2021/12/27 08:55:34;;;;;;;;;;;9.60;99.90;;;;;;5066969;28;20289;-61
2021/12/27 08:58:01;;;;;;;;;;;9.70;99.90;;;;;;5062990;28;20053;-61
2021/12/27 09:00:26;;;;;;;;;;;9.60;99.90;;;;;;5066266;28;19916;-59
2021/12/27 09:02:52;;;;;;;;;;;9.60;99.90;;;;;;5068210;28;19928;-60
2021/12/27 09:05:17;;;;;;;;;;;9.60;99.90;;;;;;5065782;28;19959;-61
2021/12/27 09:07:43;;;;;;;;;;;9.70;99.90;;;;;;5066563;28;19916;-63
2021/12/27 09:10:09;;;;;;;;;;;9.70;99.90;;;;;;5066056;28;20278;-63
2021/12/27 09:12:34;;;;;;;;;;;9.70;99.90;;;;;;5066894;28;19939;-63
2021/12/27 09:15:00;;;;;;;;;;;9.70;99.90;;;;;;5066699;28;20370;-62
2021/12/27 09:17:25;;;;;;;;;;;9.70;99.90;;;;;;5070871;28;19916;-63
2021/12/27 09:19:51;;;;;;;;;;;9.80;99.90;;;;;;5070187;28;19930;-62
2021/12/27 09:22:18;;;;;;;;;;;9.70;99.90;;;;;;5070494;28;19966;-64
2021/12/27 09:24:44;;;;;;;;;;;9.80;99.90;;;;;;5068470;28;19967;-63
2021/12/27 09:27:10;;;;;;;;;;;9.80;99.90;;;;;;5069973;28;19951;-63
2021/12/27 09:29:35;;;;;;;;;;;9.80;99.90;;;;;;5070145;28;19912;-62
2021/12/27 09:32:01;;;;;;;;;;;9.80;99.90;;;;;;5070556;28;20308;-63
2021/12/27 09:34:26;;;;;;;;;;;9.90;99.90;;;;;;5070375;28;19916;-63
2021/12/27 09:36:52;;;;;;;;;;;9.90;99.90;;;;;;5070051;28;20248;-62
2021/12/27 09:39:18;;;;;;;;;;;9.90;99.90;;;;;;5069918;28;20282;-63
2021/12/27 09:41:44;;;;;;;;;;;9.90;99.90;;;;;;5070274;28;19916;-63
2021/12/27 09:44:09;;;;;;;;;;;9.90;99.90;;;;;;5069181;28;19920;-62
2021/12/27 09:46:35;;;;;;;;;;;9.80;99.90;;;;;;5069765;28;20563;-63
2021/12/27 09:49:05;;;;;;;;;;;9.80;99.90;;;;;;5069180;28;20467;-63
2021/12/27 09:51:34;;;;;;;;;;;9.80;99.90;;;;;;5069332;28;19971;-63
2021/12/27 09:53:59;;;;;;;;;;;9.80;99.90;;;;;;5069851;28;19912;-64
2021/12/27 09:56:25;;;;;;;;;;;9.80;99.90;;;;;;5069990;28;19923;-63
2021/12/27 09:58:50;;;;;;;;;;;9.80;99.90;;;;;;5068880;28;19928;-63
2021/12/27 10:01:16;;;;;;;;;;;9.80;99.90;;;;;;5069445;28;19912;-63
2021/12/27 10:03:49;;;;;;;;;;;9.90;99.90;;;;;;5047153;28;20424;-63
2021/12/27 10:06:15;;;;;;;;;;;9.90;99.90;;;;;;5069477;28;20296;-62
2021/12/27 10:08:45;;;;;;;;;;;9.90;99.90;;;;;;5070689;28;20346;-63
2021/12/27 10:11:21;;;;;;;;;;;9.90;99.90;;;;;;5068908;28;19952;-63
2021/12/27 10:14:03;;;;;;;;;;;9.90;99.90;;;;;;5068881;28;19923;-62
2021/12/27 10:16:30;;;;;;;;;;;9.90;99.90;;;;;;5069156;28;20007;-61
2021/12/27 10:18:56;;;;;;;;;;;9.90;99.90;;;;;;5069360;28;20014;-62
2021/12/27 10:21:22;;;;;;;;;;;9.90;99.90;;;;;;5068589;28;19920;-63
2021/12/27 10:23:48;;;;;;;;;;;9.90;99.90;;;;;;5070619;28;19920;-62
2021/12/27 10:26:18;;;;;;;;;;;9.90;99.90;;;;;;5068481;28;20454;-63
2021/12/27 10:28:43;;;;;;;;;;;10.00;99.90;;;;;;5069120;28;20400;-61
2021/12/27 10:31:09;;;;;;;;;;;10.00;99.90;;;;;;5068984;28;19912;-58
2021/12/27 10:33:34;;;;;;;;;;;10.00;99.90;;;;;;5069254;28;20031;-61
2021/12/27 10:36:00;;;;;;;;;;;10.00;99.90;;;;;;5066311;28;19942;-60
2021/12/27 10:38:27;;;;;;;;;;;9.90;99.90;;;;;;5069966;28;20324;-59
2021/12/27 10:40:52;;;;;;;;;;;9.90;99.90;;;;;;5068729;28;19939;-60
2021/12/27 10:43:19;;;;;;;;;;;9.90;99.90;;;;;;5069025;28;20373;-60
2021/12/27 10:45:45;;;;;;;;;;;9.90;99.90;;;;;;5065108;28;19921;-60
2021/12/27 10:48:18;;;;;;;;;;;10.00;99.90;;;;;;5068849;28;19940;-58
2021/12/27 10:50:44;;;;;;;;;;;10.00;99.90;;;;;;5070234;28;19917;-58
2021/12/27 10:53:10;;;;;;;;;;;10.00;99.90;;;;;;5051071;28;19919;-60
2021/12/27 10:55:38;;;;;;;;;;;10.00;99.90;;;;;;5068910;28;19919;-60
2021/12/27 10:58:18;;;;;;;;;;;10.00;99.90;;;;;;5067953;28;19917;-60
2021/12/27 11:00:45;;;;;;;;;;;10.00;99.90;;;;;;5067656;28;19994;-60
2021/12/27 11:03:21;;;;;;;;;;;10.00;99.90;;;;;;5068147;28;19973;-60
2021/12/27 11:05:47;;;;;;;;;;;10.00;99.90;;;;;;5069585;28;19916;-59
2021/12/27 11:08:12;;;;;;;;;;;10.00;99.90;;;;;;5068382;28;20297;-59
2021/12/27 11:10:38;;;;;;;;;;;10.10;99.90;;;;;;5068272;28;20292;-60
2021/12/27 11:13:04;;;;;;;;;;;10.10;99.90;;;;;;5068290;28;19912;-60
2021/12/27 11:15:31;;;;;;;;;;;10.10;99.90;;;;;;5068503;28;19920;-59
2021/12/27 11:17:56;;;;;;;;;;;10.10;99.90;;;;;;5070774;28;20010;-60
2021/12/27 11:20:23;;;;;;;;;;;10.10;99.90;;;;;;5068361;28;20065;-60
2021/12/27 11:22:51;;;;;;;;;;;10.20;99.90;;;;;;5067699;28;20411;-60
2021/12/27 11:25:21;;;;;;;;;;;10.20;99.90;;;;;;5067797;28;20377;-58
2021/12/27 11:27:47;;;;;;;;;;;10.20;99.90;;;;;;5069864;28;19913;-58
2021/12/27 11:30:16;;;;;;;;;;;10.30;99.90;;;;;;5067176;28;20297;-59
2021/12/27 11:33:01;;;;;;;;;;;10.30;99.90;;;;;;5067251;28;19954;-58
2021/12/27 11:35:30;;;;;;;;;;;10.30;99.90;;;;;;5068048;28;19912;-61
2021/12/27 11:37:59;;;;;;;;;;;10.40;99.90;;;;;;5069084;28;19913;-60
2021/12/27 11:40:24;;;;;;;;;;;10.40;99.90;;;;;;5066371;28;19916;-61
2021/12/27 11:42:54;;;;;;;;;;;10.40;99.90;;;;;;5067660;28;20045;-61
2021/12/27 11:45:36;;;;;;;;;;;10.50;99.90;;;;;;5068529;28;19921;-62
2021/12/27 11:48:06;;;;;;;;;;;10.60;99.90;;;;;;5066924;28;19920;-63
2021/12/27 11:50:32;;;;;;;;;;;10.70;99.90;;;;;;5069411;28;19923;-61
2021/12/27 11:53:04;;;;;;;;;;;10.80;99.90;;;;;;5067681;28;19909;-64
2021/12/27 11:55:37;;;;;;;;;;;10.90;99.90;;;;;;5067455;28;20404;-62
2021/12/27 11:58:02;;;;;;;;;;;11.00;99.90;;;;;;5073716;28;19912;-62
2021/12/27 12:00:28;;;;;;;;;;;11.10;99.90;;;;;;5073140;28;19935;-63
2021/12/27 12:02:56;;;;;;;;;;;11.10;99.90;;;;;;5071332;28;19979;-63
2021/12/27 12:05:34;;;;;;;;;;;11.20;99.90;;;;;;5073483;28;19928;-62
2021/12/27 12:07:59;;;;;;;;;;;11.10;99.90;;;;;;5072660;28;20388;-64
2021/12/27 12:10:26;;;;;;;;;;;11.20;99.90;;;;;;5072953;28;19921;-63
2021/12/27 12:13:10;;;;;;;;;;;11.20;99.90;;;;;;5073270;28;20508;-61
2021/12/27 12:15:35;;;;;;;;;;;11.20;99.90;;;;;;5057598;28;19912;-64
2021/12/27 12:18:15;;;;;;;;;;;11.20;99.90;;;;;;5071144;28;19931;-64
2021/12/27 12:20:40;;;;;;;;;;;11.30;99.90;;;;;;5054960;28;20054;-63
2021/12/27 12:23:07;;;;;;;;;;;11.30;99.90;;;;;;5072472;28;20003;-63
2021/12/27 12:25:33;;;;;;;;;;;11.30;99.90;;;;;;5055241;28;20061;-63
2021/12/27 12:28:00;;;;;;;;;;;11.30;99.90;;;;;;5072791;28;19912;-64
2021/12/27 12:30:27;;;;;;;;;;;11.50;99.90;;;;;;5073244;28;19916;-64
2021/12/27 12:33:00;;;;;;;;;;;11.50;99.90;;;;;;5067216;28;19916;-63
2021/12/27 12:35:36;;;;;;;;;;;11.60;99.90;;;;;;5071873;28;20011;-64
2021/12/27 12:38:28;;;;;;;;;;;11.70;99.90;;;;;;5072815;28;19912;-64
2021/12/27 12:40:57;;;;;;;;;;;11.80;99.90;;;;;;5069775;28;19927;-64
2021/12/27 12:43:41;;;;;;;;;;;11.80;99.90;;;;;;5072838;28;20015;-62
2021/12/27 12:46:26;;;;;;;;;;;11.80;99.90;;;;;;5072558;28;19987;-63
2021/12/27 12:48:59;;;;;;;;;;;11.90;99.90;;;;;;5072784;28;20477;-64
2021/12/27 12:51:49;;;;;;;;;;;12.00;99.90;;;;;;5059119;28;19912;-64
2021/12/27 12:54:24;;;;;;;;;;;12.00;99.90;;;;;;5050527;28;19913;-64
2021/12/27 12:56:52;;;;;;;;;;;12.10;99.90;;;;;;5074960;28;19908;-63
2021/12/27 12:59:18;;;;;;;;;;;12.10;99.90;;;;;;5076686;28;19958;-62
2021/12/27 13:01:55;;;;;;;;;;;12.10;99.90;;;;;;5076477;28;19948;-61
2021/12/27 13:04:21;;;;;;;;;;;12.20;99.90;;;;;;5076504;28;19952;-61
2021/12/27 13:06:46;;;;;;;;;;;12.20;99.90;;;;;;5076271;28;19956;-63
2021/12/27 13:09:12;;;;;;;;;;;12.30;99.90;;;;;;5074355;28;19935;-64
2021/12/27 13:11:38;;;;;;;;;;;12.40;99.90;;;;;;5077148;28;19916;-63
2021/12/27 13:14:04;;;;;;;;;;;12.40;99.90;;;;;;5074990;28;19912;-60
2021/12/27 13:16:30;;;;;;;;;;;12.40;99.90;;;;;;5076297;28;19912;-63
2021/12/27 13:18:56;;;;;;;;;;;12.40;99.90;;;;;;5076516;28;20297;-62
2021/12/27 13:21:21;;;;;;;;;;;12.40;99.90;;;;;;5075403;28;19950;-64
2021/12/27 13:23:47;;;;;;;;;;;12.30;99.90;;;;;;5074649;28;19947;-63
2021/12/27 13:26:14;;;;;;;;;;;12.30;99.90;;;;;;5076067;28;19943;-62
2021/12/27 13:28:42;;;;;;;;;;;12.30;99.90;;;;;;5075968;28;19935;-61
2021/12/27 13:31:14;;;;;;;;;;;12.30;99.90;;;;;;5075967;28;19923;-63
2021/12/27 13:33:43;;;;;;;;;;;12.30;99.90;;;;;;5074500;28;19920;-63
2021/12/27 13:36:20;;;;;;;;;;;12.30;99.90;;;;;;5074278;28;19962;-63
2021/12/27 13:39:00;;;;;;;;;;;12.40;99.90;;;;;;5073294;28;19931;-62
2021/12/27 13:41:27;;;;;;;;;;;12.40;99.90;;;;;;5073863;28;19959;-63
2021/12/27 13:43:57;;;;;;;;;;;12.40;99.90;;;;;;5075223;28;19928;-63
2021/12/27 13:46:24;;;;;;;;;;;12.40;99.90;;;;;;5075177;28;20423;-65
2021/12/27 13:48:50;;;;;;;;;;;12.50;99.90;;;;;;5075036;28;19919;-63
2021/12/27 13:51:20;;;;;;;;;;;12.60;99.90;;;;;;5073872;28;19920;-63
2021/12/27 13:53:55;;;;;;;;;;;12.60;99.90;;;;;;5073742;28;20026;-63
2021/12/27 13:56:21;;;;;;;;;;;12.60;99.90;;;;;;5075327;28;19912;-65
2021/12/27 13:58:49;;;;;;;;;;;12.60;99.90;;;;;;5075102;28;20297;-64
2021/12/27 14:01:16;;;;;;;;;;;12.60;99.90;;;;;;5075221;28;19920;-64
2021/12/27 14:03:42;;;;;;;;;;;12.60;99.90;;;;;;5074312;28;19927;-63
2021/12/27 14:06:09;;;;;;;;;;;12.60;99.90;;;;;;5072980;28;19916;-62
2021/12/27 14:08:35;;;;;;;;;;;12.60;99.90;;;;;;5074838;28;19912;-63
2021/12/27 14:11:01;;;;;;;;;;;12.60;99.90;;;;;;5074593;28;20390;-63
2021/12/27 14:13:45;;;;;;;;;;;12.60;99.90;;;;;;5073613;28;19995;-64
2021/12/27 14:16:22;;;;;;;;;;;12.50;99.90;;;;;;5074976;28;20385;-63
2021/12/27 14:19:01;;;;;;;;;;;12.50;99.90;;;;;;5074807;28;19919;-63
2021/12/27 14:21:27;;;;;;;;;;;12.40;99.90;;;;;;5059874;28;19913;-63
2021/12/27 14:24:02;;;;;;;;;;;12.40;99.90;;;;;;5073020;28;20441;-64
2021/12/27 14:26:28;;;;;;;;;;;12.30;99.90;;;;;;5074852;28;19918;-62